Time;durP1;ratioP1;P1;durP2;ratioP2;P2;SDS_P1;SDS_P2;PMS_P1;PMS_P2;Temp;Humidity;BMP_temperature;BMP_pressure;BME280_temperature;BME280_humidity;BME280_pressure;Samples;Min_cycle;Max_cycle;Signal;HPM_P1;HPM_P2
2022/10/24 00:00:30;;;;;;;3.40;2.08;;;;;;;;;;10360229;28;20498;-59
2022/10/24 00:05:30;;;;;;;2.83;1.88;;;;;;;;;;10364082;28;20121;-59
2022/10/24 00:10:31;;;;;;;4.15;2.00;;;;;;;;;;10370262;28;20030;-59
2022/10/24 00:15:31;;;;;;;3.53;2.20;;;;;;;;;;10363588;28;20076;-59
2022/10/24 00:20:31;;;;;;;2.72;1.88;;;;;;;;;;10370121;28;20479;-59
2022/10/24 00:25:32;;;;;;;3.63;2.05;;;;;;;;;;10365049;28;20057;-60
2022/10/24 00:30:32;;;;;;;3.30;1.90;;;;;;;;;;10366074;28;20034;-59
2022/10/24 00:35:32;;;;;;;3.50;2.00;;;;;;;;;;10373728;28;20042;-59
2022/10/24 00:40:33;;;;;;;2.50;1.87;;;;;;;;;;10369478;28;20034;-59
2022/10/24 00:45:36;;;;;;;6.63;2.03;;;;;;;;;;10368244;28;20045;-59
2022/10/24 00:50:36;;;;;;;1.88;1.70;;;;;;;;;;10390888;28;20033;-59
2022/10/24 00:55:37;;;;;;;4.15;1.92;;;;;;;;;;10386096;28;20400;-60
2022/10/24 01:00:37;;;;;;;3.35;2.15;;;;;;;;;;10380553;28;20052;-60
2022/10/24 01:05:57;;;;;;;3.47;2.10;;;;;;;;;;10394823;28;20095;-60
2022/10/24 01:11:13;;;;;;;2.42;1.83;;;;;;;;;;10355160;28;20038;-59
2022/10/24 01:16:19;;;;;;;2.97;2.10;;;;;;;;;;10364877;28;20063;-60
2022/10/24 01:21:25;;;;;;;3.63;2.17;;;;;;;;;;10363177;28;20026;-59
2022/10/24 01:26:31;;;;;;;4.40;2.10;;;;;;;;;;10357900;28;20113;-59
2022/10/24 01:31:50;;;;;;;3.05;1.77;;;;;;;;;;10358067;28;20045;-60
2022/10/24 01:37:20;;;;;;;2.47;1.90;;;;;;;;;;10370104;28;20049;-59
2022/10/24 01:42:21;;;;;;;3.05;1.63;;;;;;;;;;10366093;28;20099;-59
2022/10/24 01:47:25;;;;;;;5.07;2.28;;;;;;;;;;10368693;28;20038;-59
2022/10/24 01:52:28;;;;;;;2.22;1.70;;;;;;;;;;10384726;28;20080;-59
2022/10/24 01:57:30;;;;;;;2.80;1.85;;;;;;;;;;10372282;28;20513;-59
2022/10/24 02:02:33;;;;;;;2.70;1.90;;;;;;;;;;10368934;28;20041;-60
2022/10/24 02:07:35;;;;;;;2.58;1.75;;;;;;;;;;10353495;28;20034;-60
2022/10/24 02:12:42;;;;;;;2.35;1.73;;;;;;;;;;10371451;28;20030;-60
2022/10/24 02:17:42;;;;;;;1.65;1.50;;;;;;;;;;10374643;28;20399;-59
2022/10/24 02:22:53;;;;;;;2.17;1.60;;;;;;;;;;10399040;28;20043;-60
2022/10/24 02:28:01;;;;;;;2.80;1.80;;;;;;;;;;10394296;28;20034;-59
2022/10/24 02:33:01;;;;;;;2.75;2.03;;;;;;;;;;10368323;28;20559;-60
2022/10/24 02:38:06;;;;;;;2.92;1.75;;;;;;;;;;10379738;28;20033;-60
2022/10/24 02:43:07;;;;;;;3.20;1.70;;;;;;;;;;10374761;28;20073;-60
2022/10/24 02:48:10;;;;;;;2.30;1.70;;;;;;;;;;10378376;28;20025;-60
2022/10/24 02:53:14;;;;;;;2.53;1.75;;;;;;;;;;10378052;28;20037;-60
2022/10/24 02:58:14;;;;;;;2.20;1.70;;;;;;;;;;10368911;28;20057;-60
2022/10/24 03:03:15;;;;;;;2.75;1.55;;;;;;;;;;10370219;28;20104;-60
2022/10/24 03:08:15;;;;;;;3.47;1.70;;;;;;;;;;10380086;28;20298;-59
2022/10/24 03:13:15;;;;;;;2.10;1.73;;;;;;;;;;10388874;28;20481;-59
2022/10/24 03:18:16;;;;;;;4.80;1.50;;;;;;;;;;10378298;28;20041;-59
2022/10/24 03:23:18;;;;;;;5.30;1.70;;;;;;;;;;10371188;28;20175;-59
2022/10/24 03:28:18;;;;;;;2.13;1.55;;;;;;;;;;10387864;28;20033;-60
2022/10/24 03:33:19;;;;;;;1.60;1.50;;;;;;;;;;10382415;28;20025;-60
2022/10/24 03:38:20;;;;;;;1.90;1.70;;;;;;;;;;10371699;28;20494;-60
2022/10/24 03:43:20;;;;;;;2.55;1.60;;;;;;;;;;10386379;28;20083;-59
2022/10/24 03:48:20;;;;;;;1.50;1.40;;;;;;;;;;10367773;28;20057;-60
2022/10/24 03:53:20;;;;;;;2.65;1.60;;;;;;;;;;10376704;28;20057;-60
2022/10/24 03:58:21;;;;;;;1.77;1.67;;;;;;;;;;10364055;28;20101;-60
2022/10/24 04:03:21;;;;;;;3.45;1.80;;;;;;;;;;10369509;28;20065;-60
2022/10/24 04:08:21;;;;;;;1.60;1.50;;;;;;;;;;10392008;28;20484;-59
2022/10/24 04:13:21;;;;;;;1.53;1.40;;;;;;;;;;10385854;28;20113;-59
2022/10/24 04:18:22;;;;;;;2.93;1.50;;;;;;;;;;10387371;28;20030;-59
2022/10/24 04:23:22;;;;;;;4.30;1.75;;;;;;;;;;10391112;28;20037;-60
2022/10/24 04:28:22;;;;;;;1.88;1.55;;;;;;;;;;10391799;28;20087;-60
2022/10/24 04:33:23;;;;;;;1.48;1.38;;;;;;;;;;10373478;28;20489;-59
2022/10/24 04:38:23;;;;;;;2.80;1.70;;;;;;;;;;10390489;28;20025;-60
2022/10/24 04:43:23;;;;;;;1.50;1.40;;;;;;;;;;10377845;28;20034;-59
2022/10/24 04:48:24;;;;;;;1.63;1.40;;;;;;;;;;10364830;28;20041;-59
2022/10/24 04:53:24;;;;;;;1.70;1.60;;;;;;;;;;10377593;28;20049;-59
2022/10/24 04:58:24;;;;;;;1.70;1.60;;;;;;;;;;10389089;28;20047;-59
2022/10/24 05:03:24;;;;;;;1.75;1.50;;;;;;;;;;10374227;28;20030;-59
2022/10/24 05:08:25;;;;;;;1.60;1.50;;;;;;;;;;10370682;28;20508;-60
2022/10/24 05:13:25;;;;;;;2.47;1.63;;;;;;;;;;10356692;28;20480;-60
2022/10/24 05:18:25;;;;;;;1.48;1.38;;;;;;;;;;10372428;28;20027;-59
2022/10/24 05:23:26;;;;;;;2.85;1.70;;;;;;;;;;10356944;28;20148;-59
2022/10/24 05:28:26;;;;;;;1.60;1.50;;;;;;;;;;10368574;28;20042;-59
2022/10/24 05:33:26;;;;;;;2.40;1.60;;;;;;;;;;10372159;28;20029;-60
2022/10/24 05:38:26;;;;;;;11.70;1.60;;;;;;;;;;10362462;28;20033;-59
2022/10/24 05:43:27;;;;;;;1.75;1.42;;;;;;;;;;10378516;28;20034;-59
2022/10/24 05:48:27;;;;;;;3.80;1.70;;;;;;;;;;10366511;28;20080;-59
2022/10/24 05:53:27;;;;;;;4.32;1.92;;;;;;;;;;10370114;28;20477;-59
2022/10/24 05:58:28;;;;;;;1.80;1.53;;;;;;;;;;10361926;28;20069;-59
2022/10/24 06:03:28;;;;;;;8.70;2.80;;;;;;;;;;10358881;28;20037;-64
2022/10/24 06:08:28;;;;;;;9.60;3.22;;;;;;;;;;10362805;28;20549;-64
2022/10/24 06:13:29;;;;;;;7.78;3.13;;;;;;;;;;10366419;28;20033;-59
2022/10/24 06:18:29;;;;;;;7.32;3.15;;;;;;;;;;10363245;28;20388;-60
2022/10/24 06:23:30;;;;;;;5.68;2.78;;;;;;;;;;10363940;28;20026;-59
2022/10/24 06:28:30;;;;;;;9.52;2.70;;;;;;;;;;10365051;28;20026;-60
2022/10/24 06:33:30;;;;;;;8.93;3.17;;;;;;;;;;10363304;28;20022;-59
2022/10/24 06:38:31;;;;;;;6.40;3.00;;;;;;;;;;10360953;28;20032;-60
2022/10/24 06:43:31;;;;;;;5.97;3.22;;;;;;;;;;10363533;28;20468;-59
2022/10/24 06:48:32;;;;;;;8.97;3.00;;;;;;;;;;10364800;28;20489;-59
2022/10/24 06:53:33;;;;;;;6.38;2.80;;;;;;;;;;10369880;28;20092;-59
2022/10/24 06:58:34;;;;;;;5.97;3.10;;;;;;;;;;10417686;23;20053;-59
2022/10/24 07:03:34;;;;;;;5.60;3.10;;;;;;;;;;10403863;28;20112;-58
2022/10/24 07:08:34;;;;;;;11.65;3.70;;;;;;;;;;10405233;28;20029;-56
2022/10/24 07:13:35;;;;;;;4.43;2.78;;;;;;;;;;10385927;28;20072;-59
2022/10/24 07:18:35;;;;;;;8.37;3.10;;;;;;;;;;10397537;28;20544;-58
2022/10/24 07:23:35;;;;;;;4.60;2.83;;;;;;;;;;10378777;28;20582;-56
2022/10/24 07:28:36;;;;;;;4.13;2.78;;;;;;;;;;10385303;28;20455;-54
2022/10/24 07:33:38;;;;;;;4.15;2.42;;;;;;;;;;10392498;28;20029;-56
2022/10/24 07:38:38;;;;;;;5.70;2.70;;;;;;;;;;10411023;28;20116;-58
2022/10/24 07:43:38;;;;;;;5.13;2.83;;;;;;;;;;10412972;28;20510;-46
2022/10/24 07:48:41;;;;;;;4.68;2.88;;;;;;;;;;10409599;28;20033;-58
2022/10/24 07:53:41;;;;;;;5.13;2.92;;;;;;;;;;10386418;28;20109;-48
2022/10/24 07:58:42;;;;;;;8.32;3.15;;;;;;;;;;10409039;28;20132;-49
2022/10/24 08:03:43;;;;;;;5.82;3.22;;;;;;;;;;10410455;28;20056;-46
2022/10/24 08:08:43;;;;;;;4.43;2.60;;;;;;;;;;10409807;28;20052;-56
2022/10/24 08:13:44;;;;;;;5.88;2.92;;;;;;;;;;10394625;28;20396;-46
2022/10/24 08:18:44;;;;;;;6.70;2.90;;;;;;;;;;10406234;28;20626;-46
2022/10/24 08:23:45;;;;;;;5.67;2.90;;;;;;;;;;10386763;28;20491;-53
2022/10/24 08:28:46;;;;;;;5.32;2.63;;;;;;;;;;10395144;28;20095;-56
2022/10/24 08:33:47;;;;;;;6.18;2.55;;;;;;;;;;10386286;28;20117;-51
2022/10/24 08:38:48;;;;;;;3.30;2.70;;;;;;;;;;10397251;28;20034;-57
2022/10/24 08:43:48;;;;;;;5.17;3.00;;;;;;;;;;10398596;28;20037;-58
2022/10/24 08:48:51;;;;;;;6.00;2.77;;;;;;;;;;10408588;28;20164;-57
2022/10/24 08:53:52;;;;;;;3.03;2.63;;;;;;;;;;10397141;28;20100;-57
2022/10/24 08:58:52;;;;;;;6.75;2.50;;;;;;;;;;10397612;28;20046;-49
2022/10/24 09:03:53;;;;;;;5.05;2.47;;;;;;;;;;10396990;28;20033;-53
2022/10/24 09:08:57;;;;;;;4.78;2.58;;;;;;;;;;10400679;28;20786;-46
2022/10/24 09:14:00;;;;;;;5.72;2.58;;;;;;;;;;10389010;28;20496;-57
2022/10/24 09:19:00;;;;;;;3.45;2.78;;;;;;;;;;10406369;28;20037;-58
2022/10/24 09:24:00;;;;;;;7.28;2.85;;;;;;;;;;10395568;28;20029;-57
2022/10/24 09:29:01;;;;;;;6.77;3.00;;;;;;;;;;10395495;28;20033;-46
2022/10/24 09:34:02;;;;;;;3.80;2.80;;;;;;;;;;10408980;28;20045;-51
2022/10/24 09:39:22;;;;;;;6.38;3.22;;;;;;;;;;10407840;28;20037;-56
2022/10/24 09:44:33;;;;;;;4.15;2.92;;;;;;;;;;10407962;28;20033;-50
2022/10/24 09:49:35;;;;;;;5.03;3.20;;;;;;;;;;10408031;28;20120;-49
2022/10/24 09:54:35;;;;;;;5.90;3.38;;;;;;;;;;10382704;28;20029;-58
2022/10/24 09:59:56;;;;;;;6.10;3.23;;;;;;;;;;10398229;28;20500;-57
2022/10/24 10:05:03;;;;;;;6.95;3.28;;;;;;;;;;10395447;28;20029;-50
2022/10/24 10:10:18;;;;;;;5.85;3.10;;;;;;;;;;10392490;28;20469;-56
2022/10/24 10:15:25;;;;;;;7.47;4.00;;;;;;;;;;10406923;28;20025;-47
2022/10/24 10:20:29;;;;;;;5.72;3.95;;;;;;;;;;10406852;28;20149;-58
2022/10/24 10:25:30;;;;;;;4.95;3.58;;;;;;;;;;10381751;28;20026;-46
2022/10/24 10:30:32;;;;;;;4.57;3.70;;;;;;;;;;10403321;28;20507;-47
2022/10/24 10:35:32;;;;;;;8.30;4.00;;;;;;;;;;10381618;28;20042;-46
2022/10/24 10:40:36;;;;;;;4.70;3.60;;;;;;;;;;10392869;28;20038;-46
2022/10/24 10:45:47;;;;;;;6.55;3.60;;;;;;;;;;10394004;28;20122;-58
2022/10/24 10:51:05;;;;;;;10.32;3.63;;;;;;;;;;10394516;28;20052;-57
2022/10/24 10:56:12;;;;;;;6.18;3.45;;;;;;;;;;10392667;28;20532;-55
2022/10/24 11:01:24;;;;;;;6.15;3.85;;;;;;;;;;10390536;28;20045;-47
2022/10/24 11:06:30;;;;;;;3.92;3.50;;;;;;;;;;10396922;28;20461;-47
2022/10/24 11:11:31;;;;;;;5.45;3.55;;;;;;;;;;10403548;28;20045;-48
2022/10/24 11:16:32;;;;;;;6.30;4.18;;;;;;;;;;10404225;28;20045;-45
2022/10/24 11:21:34;;;;;;;6.60;4.30;;;;;;;;;;10395167;28;20049;-58
2022/10/24 11:26:44;;;;;;;6.57;3.97;;;;;;;;;;10395575;28;20025;-58
2022/10/24 11:31:47;;;;;;;6.60;4.30;;;;;;;;;;10403479;28;20037;-56
2022/10/24 11:37:08;;;;;;;6.43;4.40;;;;;;;;;;10392059;28;20034;-51
2022/10/24 11:42:28;;;;;;;7.72;4.28;;;;;;;;;;10399084;28;20026;-56
2022/10/24 11:47:32;;;;;;;10.73;4.13;;;;;;;;;;10401973;28;20112;-47
2022/10/24 11:52:41;;;;;;;5.20;4.18;;;;;;;;;;10404275;28;20037;-55
2022/10/24 11:57:43;;;;;;;5.30;4.20;;;;;;;;;;10403038;28;20052;-57
2022/10/24 12:02:53;;;;;;;7.40;4.30;;;;;;;;;;10404557;28;20041;-58
2022/10/24 12:08:28;;;;;;;6.15;4.15;;;;;;;;;;10393964;28;20029;-46
2022/10/24 12:13:54;;;;;;;8.77;4.30;;;;;;;;;;10332595;28;20049;-54
2022/10/24 12:18:59;;;;;;;4.80;3.85;;;;;;;;;;10402384;28;20029;-56
2022/10/24 12:24:00;;;;;;;10.07;4.90;;;;;;;;;;10410055;28;20101;-58
2022/10/24 12:29:04;;;;;;;5.40;4.43;;;;;;;;;;10405249;28;20037;-47
2022/10/24 12:34:21;;;;;;;13.02;4.63;;;;;;;;;;10398509;28;20025;-57
2022/10/24 12:39:29;;;;;;;7.15;4.15;;;;;;;;;;10402646;28;20118;-57
2022/10/24 12:44:32;;;;;;;8.57;3.85;;;;;;;;;;10388180;28;20068;-59
2022/10/24 12:49:32;;;;;;;7.72;3.95;;;;;;;;;;10388093;28;20123;-46
2022/10/24 12:54:43;;;;;;;6.53;4.15;;;;;;;;;;10411407;28;20033;-46
2022/10/24 12:59:51;;;;;;;6.35;4.28;;;;;;;;;;10405273;28;20041;-46
2022/10/24 13:05:10;;;;;;;9.57;4.50;;;;;;;;;;10404838;28;20040;-48
2022/10/24 13:10:19;;;;;;;7.72;4.38;;;;;;;;;;10390878;28;20053;-58
2022/10/24 13:15:29;;;;;;;8.50;4.88;;;;;;;;;;10402372;28;20133;-46
2022/10/24 13:20:35;;;;;;;8.88;4.45;;;;;;;;;;10397776;28;20088;-46
2022/10/24 13:25:36;;;;;;;8.32;4.30;;;;;;;;;;10388140;28;20025;-46
2022/10/24 13:30:36;;;;;;;9.85;4.40;;;;;;;;;;10408987;28;20037;-57
2022/10/24 13:35:37;;;;;;;6.15;4.70;;;;;;;;;;10408102;28;20022;-54
2022/10/24 13:40:40;;;;;;;7.07;5.00;;;;;;;;;;10397091;28;20029;-58
2022/10/24 13:45:56;;;;;;;7.72;4.30;;;;;;;;;;10388382;28;20030;-56
2022/10/24 13:51:05;;;;;;;6.75;4.53;;;;;;;;;;10393780;28;20428;-59
2022/10/24 13:56:09;;;;;;;8.35;4.88;;;;;;;;;;10396991;28;20120;-55
2022/10/24 14:01:20;;;;;;;7.53;4.97;;;;;;;;;;10405201;28;20053;-58
2022/10/24 14:06:25;;;;;;;12.65;5.50;;;;;;;;;;10403178;28;20037;-46
2022/10/24 14:11:26;;;;;;;10.10;5.75;;;;;;;;;;10401242;28;20021;-46
2022/10/24 14:16:28;;;;;;;9.18;5.68;;;;;;;;;;10406273;28;20480;-47
2022/10/24 14:21:38;;;;;;;6.93;5.50;;;;;;;;;;10403317;28;20033;-59
2022/10/24 14:26:39;;;;;;;12.60;6.53;;;;;;;;;;10393291;28;20101;-57
2022/10/24 14:31:41;;;;;;;18.17;6.47;;;;;;;;;;10397298;28;20068;-46
2022/10/24 14:36:41;;;;;;;10.07;5.88;;;;;;;;;;10405902;28;20064;-57
2022/10/24 14:41:41;;;;;;;15.00;5.88;;;;;;;;;;10393505;28;20113;-56
2022/10/24 14:46:42;;;;;;;8.90;6.10;;;;;;;;;;10391059;28;20037;-48
2022/10/24 14:51:43;;;;;;;10.50;5.60;;;;;;;;;;10403432;28;20028;-45
2022/10/24 14:56:43;;;;;;;8.65;6.35;;;;;;;;;;10391984;28;20029;-53
2022/10/24 15:01:54;;;;;;;10.25;6.60;;;;;;;;;;10404550;28;20374;-47
2022/10/24 15:06:55;;;;;;;8.25;6.20;;;;;;;;;;10401112;28;20108;-57
2022/10/24 15:12:00;;;;;;;11.80;5.95;;;;;;;;;;10402198;28;20036;-46
2022/10/24 15:17:23;;;;;;;8.50;5.32;;;;;;;;;;10399833;28;20500;-54
2022/10/24 15:22:26;;;;;;;9.02;6.00;;;;;;;;;;10390664;28;20052;-55
2022/10/24 15:27:36;;;;;;;9.57;6.13;;;;;;;;;;10393632;28;20469;-58
2022/10/24 15:32:36;;;;;;;9.18;5.57;;;;;;;;;;10393973;28;20136;-47
2022/10/24 15:37:37;;;;;;;8.95;5.40;;;;;;;;;;10404633;28;20649;-45
2022/10/24 15:42:37;;;;;;;10.30;6.07;;;;;;;;;;10397032;28;20036;-56
2022/10/24 15:47:37;;;;;;;6.90;5.03;;;;;;;;;;10378530;28;20102;-58
2022/10/24 15:52:38;;;;;;;9.23;6.00;;;;;;;;;;10396665;28;20488;-58
2022/10/24 15:57:38;;;;;;;7.00;5.40;;;;;;;;;;10411580;28;20053;-55
2022/10/24 16:02:39;;;;;;;8.48;5.43;;;;;;;;;;10401365;28;20030;-55
2022/10/24 16:07:40;;;;;;;8.48;5.55;;;;;;;;;;10395825;28;20068;-57
2022/10/24 16:12:43;;;;;;;6.75;5.47;;;;;;;;;;10406818;28;20060;-57
2022/10/24 16:17:43;;;;;;;10.50;5.60;;;;;;;;;;10403422;28;20052;-61
2022/10/24 16:22:43;;;;;;;7.03;5.47;;;;;;;;;;10404753;28;20082;-57
2022/10/24 16:27:44;;;;;;;7.67;5.10;;;;;;;;;;10392722;28;20057;-59
2022/10/24 16:32:44;;;;;;;6.93;5.13;;;;;;;;;;10403691;28;20479;-60
2022/10/24 16:37:45;;;;;;;10.07;5.57;;;;;;;;;;10409808;28;20083;-56
2022/10/24 16:42:47;;;;;;;9.00;5.35;;;;;;;;;;10408037;28;21209;-60
2022/10/24 16:47:48;;;;;;;6.68;5.65;;;;;;;;;;10410378;28;20056;-60
2022/10/24 16:52:49;;;;;;;7.07;5.63;;;;;;;;;;10410074;28;20492;-61
2022/10/24 16:57:49;;;;;;;10.98;7.00;;;;;;;;;;10397853;28;20037;-59
2022/10/24 17:02:50;;;;;;;9.77;6.83;;;;;;;;;;10395826;28;20041;-62
2022/10/24 17:07:51;;;;;;;9.65;6.70;;;;;;;;;;10403281;28;20817;-62
2022/10/24 17:12:51;;;;;;;10.70;7.27;;;;;;;;;;10391303;28;20025;-60
2022/10/24 17:17:51;;;;;;;12.20;6.95;;;;;;;;;;10399013;28;20026;-61
2022/10/24 17:22:52;;;;;;;9.30;6.57;;;;;;;;;;10403805;28;20043;-62
2022/10/24 17:27:53;;;;;;;13.52;6.88;;;;;;;;;;10392589;28;20323;-61
2022/10/24 17:32:54;;;;;;;9.40;6.75;;;;;;;;;;10400361;28;20484;-60
2022/10/24 17:37:54;;;;;;;12.87;6.33;;;;;;;;;;10402402;28;20036;-59
2022/10/24 17:42:55;;;;;;;11.38;6.68;;;;;;;;;;10396927;28;20060;-60
2022/10/24 17:47:55;;;;;;;9.30;6.45;;;;;;;;;;10394051;28;20030;-60
2022/10/24 17:52:55;;;;;;;8.53;6.33;;;;;;;;;;10404955;28;20048;-61
2022/10/24 17:57:56;;;;;;;11.38;6.00;;;;;;;;;;10400319;28;20037;-56
2022/10/24 18:02:56;;;;;;;8.05;6.13;;;;;;;;;;10381580;28;20047;-62
2022/10/24 18:07:56;;;;;;;6.85;5.50;;;;;;;;;;10390999;28;20029;-60
2022/10/24 18:12:57;;;;;;;8.87;6.27;;;;;;;;;;10405276;28;20116;-62
2022/10/24 18:17:57;;;;;;;9.60;6.30;;;;;;;;;;10406005;28;20461;-62
2022/10/24 18:22:57;;;;;;;7.97;6.10;;;;;;;;;;10396413;28;20083;-54
2022/10/24 18:27:58;;;;;;;11.00;6.40;;;;;;;;;;10394528;28;20120;-61
2022/10/24 18:32:58;;;;;;;6.85;6.15;;;;;;;;;;10406253;28;20087;-59
2022/10/24 18:37:58;;;;;;;7.87;5.77;;;;;;;;;;10385155;28;20041;-62
2022/10/24 18:43:04;;;;;;;6.80;5.30;;;;;;;;;;10400683;28;20473;-61
2022/10/24 18:48:04;;;;;;;9.93;5.55;;;;;;;;;;10406162;28;20045;-62
2022/10/24 18:53:07;;;;;;;7.25;5.43;;;;;;;;;;10406387;28;20029;-53
2022/10/24 18:58:11;;;;;;;8.02;5.57;;;;;;;;;;10391578;28;20073;-62
2022/10/24 19:03:32;;;;;;;8.43;6.13;;;;;;;;;;10405710;28;20075;-62
2022/10/24 19:08:32;;;;;;;7.40;5.63;;;;;;;;;;10386316;28;20072;-60
2022/10/24 19:13:33;;;;;;;24.15;7.32;;;;;;;;;;10398522;28;20155;-62
2022/10/24 19:18:34;;;;;;;21.02;7.47;;;;;;;;;;10403665;28;20029;-60
2022/10/24 19:23:35;;;;;;;14.65;7.13;;;;;;;;;;10389812;28;20040;-62
2022/10/24 19:28:36;;;;;;;17.95;7.65;;;;;;;;;;10384568;28;20116;-63
2022/10/24 19:33:36;;;;;;;14.00;7.13;;;;;;;;;;10408041;28;20030;-62
2022/10/24 19:38:36;;;;;;;22.52;9.13;;;;;;;;;;10412856;28;20596;-58
2022/10/24 19:43:37;;;;;;;21.85;8.55;;;;;;;;;;10410129;28;20041;-57
2022/10/24 19:48:37;;;;;;;15.40;7.93;;;;;;;;;;10410370;28;20036;-56
2022/10/24 19:53:39;;;;;;;24.08;8.15;;;;;;;;;;10410728;28;20460;-59
2022/10/24 19:58:40;;;;;;;14.68;8.27;;;;;;;;;;10389551;28;20131;-60
2022/10/24 20:03:41;;;;;;;14.93;8.55;;;;;;;;;;10407677;28;20083;-59
2022/10/24 20:08:43;;;;;;;14.13;8.32;;;;;;;;;;10410548;28;20037;-57
2022/10/24 20:13:44;;;;;;;14.75;7.95;;;;;;;;;;10407869;28;20520;-60
2022/10/24 20:18:44;;;;;;;11.65;7.80;;;;;;;;;;10406455;28;20026;-59
2022/10/24 20:23:45;;;;;;;23.03;7.73;;;;;;;;;;10408870;28;20025;-58
2022/10/24 20:28:47;;;;;;;15.60;7.90;;;;;;;;;;10407921;28;20032;-56
2022/10/24 20:33:47;;;;;;;35.25;9.73;;;;;;;;;;10405581;28;20202;-50
2022/10/24 20:38:48;;;;;;;22.95;9.48;;;;;;;;;;10408665;28;20108;-54
2022/10/24 20:43:51;;;;;;;24.65;9.45;;;;;;;;;;10398444;28;20079;-60
2022/10/24 20:48:52;;;;;;;19.98;8.82;;;;;;;;;;10397416;28;20033;-59
2022/10/24 20:53:53;;;;;;;15.05;8.20;;;;;;;;;;10410756;28;20021;-59
2022/10/24 20:58:54;;;;;;;14.73;8.03;;;;;;;;;;10394402;28;20407;-59
2022/10/24 21:03:55;;;;;;;16.58;7.40;;;;;;;;;;10398329;28;20488;-60
2022/10/24 21:08:59;;;;;;;19.63;8.90;;;;;;;;;;10401537;28;20037;-58
2022/10/24 21:14:10;;;;;;;18.45;8.20;;;;;;;;;;10404105;28;20041;-63
2022/10/24 21:19:10;;;;;;;20.00;8.77;;;;;;;;;;10395469;28;20039;-55
2022/10/24 21:24:21;;;;;;;21.23;8.83;;;;;;;;;;10393640;28;20056;-55
2022/10/24 21:29:25;;;;;;;19.33;7.93;;;;;;;;;;10397496;28;20467;-58
2022/10/24 21:34:28;;;;;;;17.42;7.80;;;;;;;;;;10406000;28;20017;-60
2022/10/24 21:39:32;;;;;;;30.35;7.82;;;;;;;;;;10401870;28;20055;-57
2022/10/24 21:44:36;;;;;;;26.65;7.25;;;;;;;;;;10395949;28;20045;-56
2022/10/24 21:49:43;;;;;;;16.75;7.25;;;;;;;;;;10391698;28;20468;-58
2022/10/24 21:54:47;;;;;;;17.88;8.18;;;;;;;;;;10405305;28;20021;-58
2022/10/24 21:59:53;;;;;;;26.90;8.27;;;;;;;;;;10398330;28;20049;-58
2022/10/24 22:04:56;;;;;;;17.75;8.05;;;;;;;;;;10398914;28;20144;-58
2022/10/24 22:10:00;;;;;;;14.75;7.97;;;;;;;;;;10405790;28;20030;-58
2022/10/24 22:15:04;;;;;;;25.90;8.00;;;;;;;;;;10394168;28;20071;-59
2022/10/24 22:20:05;;;;;;;14.25;6.95;;;;;;;;;;10406443;28;20072;-58
2022/10/24 22:25:05;;;;;;;22.40;7.65;;;;;;;;;;10394099;28;20121;-58
2022/10/24 22:30:06;;;;;;;16.60;7.00;;;;;;;;;;10396852;28;20484;-58
2022/10/24 22:35:08;;;;;;;13.90;6.85;;;;;;;;;;10385311;28;20033;-56
2022/10/24 22:40:28;;;;;;;26.70;7.68;;;;;;;;;;10389534;28;20022;-50
2022/10/24 22:45:29;;;;;;;18.40;7.60;;;;;;;;;;10394499;28;20045;-45
2022/10/24 22:50:47;;;;;;;10.80;7.07;;;;;;;;;;10384033;28;20512;-58
2022/10/24 22:56:06;;;;;;;12.80;7.22;;;;;;;;;;10383602;28;20116;-53
2022/10/24 23:01:26;;;;;;;12.75;7.45;;;;;;;;;;10395720;28;20408;-53
2022/10/24 23:06:36;;;;;;;13.23;6.70;;;;;;;;;;10377355;28;20100;-56
2022/10/24 23:11:37;;;;;;;13.32;6.85;;;;;;;;;;10395150;28;20040;-56
2022/10/24 23:16:43;;;;;;;12.43;6.43;;;;;;;;;;10386812;28;20030;-54
2022/10/24 23:21:53;;;;;;;16.05;7.35;;;;;;;;;;10400798;28;20033;-58
2022/10/24 23:27:06;;;;;;;16.95;7.15;;;;;;;;;;10395677;28;20034;-50
2022/10/24 23:32:12;;;;;;;11.93;6.55;;;;;;;;;;10393743;28;20030;-58
2022/10/24 23:37:18;;;;;;;10.27;7.07;;;;;;;;;;10405842;28;20029;-53
2022/10/24 23:42:20;;;;;;;9.45;6.50;;;;;;;;;;10387566;28;20029;-59
2022/10/24 23:47:20;;;;;;;13.77;7.18;;;;;;;;;;10405377;28;20037;-57
2022/10/24 23:52:25;;;;;;;16.58;6.95;;;;;;;;;;10405004;28;20056;-56
2022/10/24 23:57:26;;;;;;;12.13;6.60;;;;;;;;;;10396592;28;20397;-53
